Time;durP1;ratioP1;P1;durP2;ratioP2;P2;SDS_P1;SDS_P2;PMS_P1;PMS_P2;Temp;Humidity;BMP_temperature;BMP_pressure;BME280_temperature;BME280_humidity;BME280_pressure;Samples;Min_cycle;Max_cycle;Signal;HPM_P1;HPM_P2
2023/03/23 00:01:19;;;;;;;1999.90;999.90;;;;;;;15.81;50.42;99677.47;5026930;28;20414;-72
2023/03/23 00:03:45;;;;;;;1999.90;999.90;;;;;;;15.83;50.08;99669.81;5031920;28;20391;-72
2023/03/23 00:06:16;;;;;;;1999.90;999.90;;;;;;;15.88;49.92;99678.72;5023259;28;20395;-71
2023/03/23 00:08:46;;;;;;;1999.90;999.90;;;;;;;15.89;50.00;99666.69;5025776;28;20795;-71
2023/03/23 00:11:16;;;;;;;1999.90;999.90;;;;;;;15.90;49.98;99662.03;5018116;28;20403;-71
2023/03/23 00:13:43;;;;;;;1999.90;999.90;;;;;;;15.89;49.97;99666.69;5018242;28;20395;-71
2023/03/23 00:16:18;;;;;;;1999.90;999.90;;;;;;;15.92;50.03;99657.06;5031924;28;20391;-71
2023/03/23 00:18:52;;;;;;;1999.90;999.90;;;;;;;15.93;49.87;99661.44;5016551;28;20420;-71
2023/03/23 00:21:18;;;;;;;1999.90;999.90;;;;;;;15.92;49.79;99657.88;5011498;28;20495;-71
2023/03/23 00:23:44;;;;;;;1999.90;999.90;;;;;;;15.95;49.85;99648.28;5019783;28;20483;-71
2023/03/23 00:26:10;;;;;;;1999.90;999.90;;;;;;;15.96;49.74;99652.63;5020216;28;20397;-71
2023/03/23 00:28:35;;;;;;;1999.90;999.90;;;;;;;15.96;49.97;99649.91;5026545;28;20466;-72
2023/03/23 00:31:06;;;;;;;1999.90;999.90;;;;;;;15.98;49.88;99647.66;5014023;28;20434;-72
2023/03/23 00:33:37;;;;;;;1999.90;999.90;;;;;;;15.97;50.27;99649.59;5024024;28;20397;-72
2023/03/23 00:36:04;;;;;;;1999.90;999.90;;;;;;;15.97;50.00;99643.34;5023904;28;20913;-72
2023/03/23 00:38:30;;;;;;;1999.90;999.90;;;;;;;15.97;50.08;99638.66;5031284;28;20426;-72
2023/03/23 00:40:57;;;;;;;1999.90;999.90;;;;;;;15.98;49.98;99642.22;5031540;28;20728;-72
2023/03/23 00:43:24;;;;;;;1999.90;999.90;;;;;;;15.99;49.72;99636.44;5022884;28;20409;-73
2023/03/23 00:45:52;;;;;;;1999.90;999.90;;;;;;;15.97;50.17;99638.66;5024983;28;20394;-72
2023/03/23 00:48:19;;;;;;;1999.90;999.90;;;;;;;16.02;50.12;99629.56;5016025;28;20795;-71
2023/03/23 00:50:44;;;;;;;1999.90;999.90;;;;;;;16.05;50.53;99631.69;5027937;28;20444;-71
2023/03/23 00:53:09;;;;;;;1999.90;999.90;;;;;;;16.05;50.42;99640.72;5019793;28;20803;-71
2023/03/23 00:55:35;;;;;;;1999.90;999.90;;;;;;;16.06;50.72;99625.94;5022674;28;20387;-71
2023/03/23 00:58:00;;;;;;;1999.90;999.90;;;;;;;16.06;50.69;99627.88;5016594;28;20435;-71
2023/03/23 01:00:26;;;;;;;1999.90;999.90;;;;;;;16.13;50.50;99622.00;5027658;28;20407;-71
2023/03/23 01:02:53;;;;;;;1999.90;999.90;;;;;;;16.18;50.49;99628.19;5024447;28;20766;-71
2023/03/23 01:05:18;;;;;;;1999.90;999.90;;;;;;;16.16;50.70;99622.22;5021354;28;20852;-71
2023/03/23 01:07:44;;;;;;;1999.90;999.90;;;;;;;16.05;50.70;99621.59;5025343;28;20398;-71
2023/03/23 01:10:12;;;;;;;1999.90;999.90;;;;;;;16.03;50.75;99612.06;5015266;28;20945;-71
2023/03/23 01:12:38;;;;;;;1999.90;999.90;;;;;;;16.06;50.19;99611.47;5024224;28;20444;-71
2023/03/23 01:15:04;;;;;;;1999.90;999.90;;;;;;;16.11;49.99;99603.16;5022118;28;20726;-72
2023/03/23 01:17:29;;;;;;;1999.90;999.90;;;;;;;16.16;49.76;99600.34;5024289;28;20440;-72
2023/03/23 01:19:56;;;;;;;1999.90;999.90;;;;;;;16.20;49.78;99595.09;5015785;28;20385;-72
2023/03/23 01:22:21;;;;;;;1999.90;999.90;;;;;;;16.32;49.33;99598.94;5024965;28;20451;-71
2023/03/23 01:24:46;;;;;;;1999.90;999.90;;;;;;;16.34;49.35;99591.22;5018601;28;20486;-71
2023/03/23 01:27:12;;;;;;;1999.90;999.90;;;;;;;16.27;49.21;99581.84;5018934;28;20425;-71
2023/03/23 01:29:37;;;;;;;1999.90;999.90;;;;;;;16.18;49.49;99581.72;5027348;28;20874;-71
2023/03/23 01:32:03;;;;;;;1999.90;999.90;;;;;;;16.15;49.94;99576.03;5013375;28;20510;-71
2023/03/23 01:34:28;;;;;;;1999.90;999.90;;;;;;;16.17;49.81;99580.06;5018694;28;20441;-71
2023/03/23 01:36:53;;;;;;;1999.90;999.90;;;;;;;16.16;50.03;99574.94;5019073;28;20400;-71
2023/03/23 01:39:19;;;;;;;1999.90;999.90;;;;;;;16.19;49.50;99579.78;5024667;28;20522;-71
2023/03/23 01:41:44;;;;;;;1999.90;999.90;;;;;;;16.23;49.45;99578.06;5026894;28;20450;-71
2023/03/23 01:44:16;;;;;;;1999.90;999.90;;;;;;;16.19;49.59;99571.59;5017699;28;20851;-71
2023/03/23 01:46:41;;;;;;;1999.90;999.90;;;;;;;16.19;49.46;99563.38;5033864;28;20399;-71
2023/03/23 01:49:18;;;;;;;1999.90;999.90;;;;;;;16.18;49.46;99570.78;5038539;28;20383;-71
2023/03/23 01:51:56;;;;;;;1999.90;999.90;;;;;;;16.20;49.54;99567.75;5030309;28;20421;-71
2023/03/23 01:54:23;;;;;;;1999.90;999.90;;;;;;;16.20;49.38;99567.75;5030827;28;20387;-71
2023/03/23 01:56:58;;;;;;;1999.90;999.90;;;;;;;16.24;49.36;99564.09;5021542;28;20393;-71
2023/03/23 01:59:26;;;;;;;1999.90;999.90;;;;;;;16.27;49.35;99559.97;5030692;28;20419;-71
2023/03/23 02:01:53;;;;;;;1999.90;999.90;;;;;;;16.26;49.36;99552.88;5018822;28;20423;-71
2023/03/23 02:04:21;;;;;;;1999.90;999.90;;;;;;;16.28;49.62;99551.44;5027770;28;20456;-71
2023/03/23 02:06:47;;;;;;;1999.90;999.90;;;;;;;16.30;49.08;99543.72;5028203;28;20429;-71
2023/03/23 02:09:19;;;;;;;1999.90;999.90;;;;;;;16.32;48.78;99529.78;5017950;28;20472;-71
2023/03/23 02:11:45;;;;;;;1999.90;999.90;;;;;;;16.30;48.79;99534.75;5032955;28;20391;-71
2023/03/23 02:14:11;;;;;;;1999.90;999.90;;;;;;;16.27;48.99;99529.88;5023789;28;20389;-71
2023/03/23 02:16:52;;;;;;;1999.90;999.90;;;;;;;16.26;48.98;99525.53;5028567;28;20383;-71
2023/03/23 02:19:35;;;;;;;1999.90;999.90;;;;;;;16.29;48.76;99520.25;5031804;28;20759;-71
2023/03/23 02:22:25;;;;;;;1999.90;999.90;;;;;;;16.34;48.49;99522.88;5036953;28;20413;-71
2023/03/23 02:25:04;;;;;;;1999.90;999.90;;;;;;;16.43;48.24;99515.56;5029822;28;20411;-71
2023/03/23 02:27:43;;;;;;;1999.90;999.90;;;;;;;16.45;48.30;99523.47;5021237;28;20746;-71
2023/03/23 02:30:21;;;;;;;1999.90;999.90;;;;;;;16.49;48.30;99513.56;5033945;28;20395;-71
2023/03/23 02:33:11;;;;;;;1999.90;999.90;;;;;;;16.44;48.68;99519.94;5015632;28;20544;-71
2023/03/23 02:35:41;;;;;;;1999.90;999.90;;;;;;;16.42;48.81;99511.22;5033718;28;20418;-71
2023/03/23 02:38:14;;;;;;;1999.90;999.90;;;;;;;16.43;48.84;99520.25;5020236;28;20471;-71
2023/03/23 02:40:48;;;;;;;1999.90;999.90;;;;;;;16.43;48.85;99518.31;5030064;28;20390;-71
2023/03/23 02:43:18;;;;;;;1999.90;999.90;;;;;;;16.42;48.96;99513.97;5020132;28;20430;-71
2023/03/23 02:45:45;;;;;;;1999.90;999.90;;;;;;;16.43;49.03;99509.31;5026693;28;20537;-71
2023/03/23 02:48:13;;;;;;;1999.90;999.90;;;;;;;16.47;48.88;99510.28;5018437;28;20458;-71
2023/03/23 02:50:42;;;;;;;1999.90;999.90;;;;;;;16.47;48.95;99511.09;5029593;28;20397;-70
2023/03/23 02:53:10;;;;;;;1999.90;999.90;;;;;;;16.49;48.85;99510.81;5017637;28;20412;-71
2023/03/23 02:55:41;;;;;;;1999.90;999.90;;;;;;;16.48;49.02;99504.53;5024742;28;20440;-71
2023/03/23 02:58:09;;;;;;;1999.90;999.90;;;;;;;16.50;49.16;99509.69;5033164;28;20423;-71
2023/03/23 03:00:36;;;;;;;1999.90;999.90;;;;;;;16.52;49.16;99515.66;5014572;28;20458;-71
2023/03/23 03:03:03;;;;;;;1999.90;999.90;;;;;;;16.53;49.00;99511.81;5040202;28;20420;-71
2023/03/23 03:05:49;;;;;;;1999.90;999.90;;;;;;;16.52;49.13;99512.94;5024937;28;20458;-71
2023/03/23 03:08:26;;;;;;;1999.90;999.90;;;;;;;16.52;49.08;99513.75;5016959;28;20393;-71
2023/03/23 03:11:05;;;;;;;1999.90;999.90;;;;;;;16.50;49.12;99513.22;5025460;28;20403;-71
2023/03/23 03:13:53;;;;;;;1999.90;999.90;;;;;;;16.53;48.93;99515.34;5018742;28;20408;-71
2023/03/23 03:16:42;;;;;;;1999.90;999.90;;;;;;;16.53;49.03;99498.94;5016172;28;20399;-71
2023/03/23 03:19:13;;;;;;;1999.90;999.90;;;;;;;16.53;49.15;99501.66;5038907;28;20415;-71
2023/03/23 03:21:43;;;;;;;1999.90;999.90;;;;;;;16.53;49.17;99503.63;5031431;28;20940;-71
2023/03/23 03:24:11;;;;;;;1999.90;999.90;;;;;;;16.52;49.27;99497.34;5016642;28;20394;-71
2023/03/23 03:26:39;;;;;;;1999.90;999.90;;;;;;;16.54;49.27;99500.56;5032826;28;20439;-71
2023/03/23 03:29:06;;;;;;;1999.90;999.90;;;;;;;16.54;49.24;99505.22;5019921;28;20939;-71
2023/03/23 03:31:37;;;;;;;1999.90;999.90;;;;;;;16.51;49.36;99508.56;5027329;28;20415;-71
2023/03/23 03:34:03;;;;;;;1999.90;999.90;;;;;;;16.52;49.63;99504.72;5016900;28;20383;-71
2023/03/23 03:36:34;;;;;;;1999.90;999.90;;;;;;;16.50;49.69;99498.75;5022615;28;20738;-71
2023/03/23 03:39:04;;;;;;;1999.90;999.90;;;;;;;16.50;49.78;99506.94;5032136;28;20910;-71
2023/03/23 03:41:30;;;;;;;1999.90;999.90;;;;;;;16.47;50.01;99505.63;5016076;28;20928;-71
2023/03/23 03:43:55;;;;;;;1999.90;999.90;;;;;;;16.47;50.02;99515.75;5032301;28;20482;-71
2023/03/23 03:46:21;;;;;;;1999.90;999.90;;;;;;;16.45;50.14;99512.53;5024126;28;20791;-71
2023/03/23 03:48:46;;;;;;;1999.90;999.90;;;;;;;16.40;50.41;99504.47;5024526;28;20473;-71
2023/03/23 03:51:11;;;;;;;1999.90;999.90;;;;;;;16.39;50.25;99511.03;5016162;28;21161;-71
2023/03/23 03:53:37;;;;;;;1999.90;999.90;;;;;;;16.38;50.37;99504.75;5028109;28;20393;-71
2023/03/23 03:56:02;;;;;;;1999.90;999.90;;;;;;;16.41;50.40;99508.78;5019610;28;20395;-71
2023/03/23 03:58:31;;;;;;;1999.90;999.90;;;;;;;16.38;50.34;99502.00;5032185;28;20446;-71
2023/03/23 04:00:58;;;;;;;1999.90;999.90;;;;;;;16.43;50.28;99514.78;5016599;28;20385;-71
2023/03/23 04:03:23;;;;;;;1999.90;999.90;;;;;;;16.44;50.55;99508.16;5015128;28;20392;-71
2023/03/23 04:05:48;;;;;;;1999.90;999.90;;;;;;;16.44;50.65;99509.00;5024196;28;20409;-71
2023/03/23 04:08:14;;;;;;;1999.90;999.90;;;;;;;16.42;50.83;99522.16;5022015;28;20398;-71
2023/03/23 04:10:39;;;;;;;1922.47;999.90;;;;;;;16.41;50.91;99523.28;5031368;28;20798;-71
2023/03/23 04:13:04;;;;;;;1933.63;999.90;;;;;;;16.39;51.08;99522.78;5015046;28;20412;-71
2023/03/23 04:15:30;;;;;;;1682.40;999.90;;;;;;;16.38;51.03;99526.63;5031827;28;20493;-71
2023/03/23 04:17:56;;;;;;;1568.20;999.90;;;;;;;16.32;51.19;99529.78;5031736;28;20509;-71
2023/03/23 04:20:22;;;;;;;1116.68;971.45;;;;;;;16.31;51.35;99531.69;5025360;28;20768;-71
2023/03/23 04:22:51;;;;;;;1236.93;999.90;;;;;;;16.33;51.32;99536.88;5040925;28;20399;-71
2023/03/23 04:25:20;;;;;;;1019.10;908.55;;;;;;;16.32;51.44;99543.44;5031345;28;20403;-72
2023/03/23 04:27:52;;;;;;;732.33;663.50;;;;;;;16.31;51.64;99541.81;5022615;28;20603;-71
2023/03/23 04:30:23;;;;;;;399.63;368.75;;;;;;;16.29;51.83;99555.81;5024622;28;20437;-71
2023/03/23 04:32:54;;;;;;;215.23;198.00;;;;;;;16.25;52.05;99549.31;5014201;28;20385;-71
2023/03/23 04:35:22;;;;;;;91.50;85.63;;;;;;;16.22;52.27;99544.47;5033918;28;20426;-71
2023/03/23 04:37:48;;;;;;;24.20;22.90;;;;;;;16.18;52.51;99537.97;5031433;28;20411;-71
2023/03/23 04:40:15;;;;;;;27.15;25.65;;;;;;;16.17;52.53;99550.00;5029356;28;20938;-71
2023/03/23 04:42:45;;;;;;;18.67;17.77;;;;;;;16.14;52.66;99552.53;5011916;28;20416;-71
2023/03/23 04:45:14;;;;;;;16.08;15.07;;;;;;;16.12;52.73;99562.97;5018613;28;20398;-71
2023/03/23 04:47:40;;;;;;;10.23;9.73;;;;;;;16.13;52.59;99550.94;5031517;28;20383;-71
2023/03/23 04:50:14;;;;;;;7.63;7.22;;;;;;;16.11;52.76;99567.63;5016698;28;20389;-71
2023/03/23 04:52:40;;;;;;;3.92;3.72;;;;;;;16.09;52.70;99572.59;5031505;28;20391;-71
2023/03/23 04:55:07;;;;;;;4.13;3.92;;;;;;;16.10;52.77;99569.53;5024228;28;20756;-71
2023/03/23 04:57:33;;;;;;;3.57;3.43;;;;;;;16.09;52.61;99567.13;5022839;28;20444;-71
2023/03/23 04:59:59;;;;;;;2.87;2.53;;;;;;;16.11;52.75;99570.34;5016699;28;20416;-71
2023/03/23 05:02:25;;;;;;;1.20;1.10;;;;;;;16.05;52.78;99566.91;5045282;28;20399;-71
2023/03/23 05:04:50;;;;;;;4.80;1.10;;;;;;;16.03;53.08;99576.53;5024953;28;20391;-71
2023/03/23 05:07:16;;;;;;;1.30;1.15;;;;;;;16.03;53.63;99584.75;5020859;28;20529;-71
2023/03/23 05:09:41;;;;;;;1.00;0.90;;;;;;;16.01;54.24;99582.28;5016919;28;20879;-71
2023/03/23 05:12:08;;;;;;;1.73;1.20;;;;;;;15.97;54.89;99584.00;5013701;28;20502;-71
2023/03/23 05:14:33;;;;;;;2.35;1.38;;;;;;;15.91;55.71;99590.69;5021253;28;20399;-71
2023/03/23 05:16:59;;;;;;;3.75;1.33;;;;;;;15.85;56.14;99593.81;5022358;28;20395;-71
2023/03/23 05:19:24;;;;;;;1.70;1.37;;;;;;;15.83;56.52;99596.03;5022335;28;20421;-71
2023/03/23 05:21:49;;;;;;;2.70;1.50;;;;;;;15.84;56.89;99590.25;5036294;28;20402;-71
2023/03/23 05:24:14;;;;;;;2.25;1.40;;;;;;;15.86;57.45;99588.06;5030607;28;20403;-71
2023/03/23 05:26:40;;;;;;;3.40;1.67;;;;;;;15.86;57.09;99579.84;5022526;28;20394;-71
2023/03/23 05:29:05;;;;;;;2.83;1.30;;;;;;;15.84;57.08;99587.53;5026121;28;20483;-71
2023/03/23 05:31:30;;;;;;;2.93;1.53;;;;;;;15.83;57.15;99596.03;5027186;28;20387;-71
2023/03/23 05:33:56;;;;;;;2.43;1.20;;;;;;;15.83;57.29;99587.84;5032941;28;20395;-72
2023/03/23 05:36:22;;;;;;;3.33;1.25;;;;;;;15.82;57.35;99588.94;5035121;28;20383;-71
2023/03/23 05:38:49;;;;;;;2.80;1.40;;;;;;;15.79;57.26;99597.75;5023661;28;20519;-71
2023/03/23 05:41:14;;;;;;;1.63;1.27;;;;;;;15.77;57.54;99600.78;5031398;28;20894;-71
2023/03/23 05:43:40;;;;;;;2.50;1.20;;;;;;;15.76;57.46;99601.88;5026737;28;20494;-71
2023/03/23 05:46:06;;;;;;;1.88;1.70;;;;;;;15.66;57.98;99602.06;5026936;28;20395;-71
2023/03/23 05:48:32;;;;;;;1.95;1.13;;;;;;;15.54;58.75;99609.91;5027905;28;20534;-71
2023/03/23 05:50:58;;;;;;;2.08;1.40;;;;;;;15.35;59.59;99606.34;5028236;28;20394;-71
2023/03/23 05:53:23;;;;;;;1.58;1.48;;;;;;;15.26;59.72;99608.13;5017200;28;20408;-71
2023/03/23 05:55:49;;;;;;;4.00;2.00;;;;;;;15.26;59.88;99616.31;5034603;28;20398;-72
2023/03/23 05:58:14;;;;;;;3.00;1.40;;;;;;;15.23;60.06;99608.72;5034809;28;20411;-73
2023/03/23 06:00:41;;;;;;;1.70;1.27;;;;;;;15.18;60.11;99612.31;5022816;28;20417;-73
2023/03/23 06:03:06;;;;;;;3.67;1.77;;;;;;;15.16;60.37;99611.00;5023084;28;20409;-73
2023/03/23 06:05:32;;;;;;;3.43;1.87;;;;;;;15.19;60.12;99613.16;5020180;28;20407;-73
2023/03/23 06:07:58;;;;;;;2.00;1.57;;;;;;;15.25;60.07;99609.22;5027251;28;20400;-73
2023/03/23 06:10:23;;;;;;;1.75;1.42;;;;;;;15.25;60.06;99614.69;5024082;28;20399;-74
2023/03/23 06:12:50;;;;;;;2.03;1.10;;;;;;;15.18;60.31;99608.81;5019685;28;20415;-73
2023/03/23 06:15:16;;;;;;;3.80;1.60;;;;;;;15.23;60.07;99606.81;5021422;28;20453;-73
2023/03/23 06:17:41;;;;;;;1.60;1.50;;;;;;;15.27;60.04;99613.31;5016431;28;20408;-73
2023/03/23 06:20:09;;;;;;;2.65;1.25;;;;;;;15.28;60.24;99620.38;5028130;28;20449;-74
2023/03/23 06:22:34;;;;;;;1.70;1.38;;;;;;;15.29;60.39;99626.63;5016225;28;20421;-73
2023/03/23 06:24:59;;;;;;;1.73;1.60;;;;;;;15.27;60.29;99632.41;5026031;28;20447;-74
2023/03/23 06:27:25;;;;;;;2.87;1.60;;;;;;;15.20;60.90;99633.88;5029216;28;20403;-73
2023/03/23 06:29:50;;;;;;;2.03;1.93;;;;;;;15.06;62.41;99636.53;5029076;28;20407;-73
2023/03/23 06:32:16;;;;;;;2.80;1.70;;;;;;;15.02;62.70;99641.75;5032660;28;20499;-73
2023/03/23 06:34:44;;;;;;;3.33;2.00;;;;;;;15.06;63.14;99642.81;5026317;28;20407;-73
2023/03/23 06:37:10;;;;;;;2.67;1.90;;;;;;;15.03;63.17;99645.31;5027338;28;20394;-74
2023/03/23 06:39:37;;;;;;;3.30;2.00;;;;;;;15.07;63.09;99649.88;5029266;28;20837;-73
2023/03/23 06:42:02;;;;;;;2.85;1.75;;;;;;;15.11;63.03;99654.75;5028586;28;20411;-73
2023/03/23 06:44:28;;;;;;;4.53;1.90;;;;;;;15.07;63.34;99655.34;5031982;28;20409;-73
2023/03/23 06:46:53;;;;;;;1.70;1.60;;;;;;;15.05;63.58;99670.38;5023454;28;20412;-74
2023/03/23 06:49:18;;;;;;;1.63;1.53;;;;;;;14.99;63.23;99669.63;5022441;28;20790;-73
2023/03/23 06:51:44;;;;;;;1.70;1.42;;;;;;;14.97;62.98;99674.59;5028542;28;20439;-74
2023/03/23 06:54:09;;;;;;;1.73;1.57;;;;;;;14.93;63.05;99676.25;5049194;28;20895;-73
2023/03/23 06:56:34;;;;;;;1.27;1.23;;;;;;;14.92;62.86;99682.81;5027722;28;20415;-73
2023/03/23 06:59:00;;;;;;;2.10;1.50;;;;;;;14.94;62.55;99688.00;5031779;28;20514;-73
2023/03/23 07:01:26;;;;;;;1.03;0.93;;;;;;;14.96;62.33;99702.13;5033008;28;20914;-73
2023/03/23 07:03:52;;;;;;;2.28;1.35;;;;;;;14.92;62.38;99701.91;5021450;28;20552;-73
2023/03/23 07:06:17;;;;;;;3.67;1.30;;;;;;;14.94;62.40;99699.72;5023184;28;20482;-74
2023/03/23 07:08:42;;;;;;;1.52;1.15;;;;;;;15.40;61.23;99702.66;5015969;28;20403;-75
2023/03/23 07:11:09;;;;;;;1.60;1.50;;;;;;;15.51;60.89;99706.09;5017335;28;20948;-74
2023/03/23 07:13:35;;;;;;;1.33;1.23;;;;;;;15.08;62.42;99705.28;5021368;28;20881;-74
2023/03/23 07:16:00;;;;;;;1.73;1.42;;;;;;;15.03;62.99;99700.69;5019335;28;20424;-74
2023/03/23 07:18:26;;;;;;;2.27;1.50;;;;;;;15.05;63.35;99698.47;5027246;28;20901;-74
2023/03/23 07:20:52;;;;;;;2.00;1.50;;;;;;;14.99;64.53;99707.81;5013294;28;20544;-74
2023/03/23 07:23:19;;;;;;;1.90;1.70;;;;;;;14.97;65.62;99701.88;5022848;28;20871;-74
2023/03/23 07:25:46;;;;;;;2.25;1.50;;;;;;;14.82;66.42;99701.25;5015445;28;20466;-74
2023/03/23 07:28:11;;;;;;;1.30;1.30;;;;;;;14.81;66.40;99705.88;5028281;28;20533;-74
2023/03/23 07:30:37;;;;;;;1.40;1.30;;;;;;;14.79;66.58;99702.63;5020378;28;20483;-74
2023/03/23 07:33:07;;;;;;;1.13;1.13;;;;;;;14.84;66.70;99690.84;5024094;28;20397;-74
2023/03/23 07:35:32;;;;;;;2.05;1.70;;;;;;;14.90;66.88;99693.22;5016650;28;20478;-74
2023/03/23 07:37:58;;;;;;;1.90;1.80;;;;;;;14.91;66.64;99700.31;5029111;28;20779;-74
2023/03/23 07:40:24;;;;;;;1.40;1.00;;;;;;;14.90;66.59;99704.13;5024019;28;20397;-74
2023/03/23 07:42:54;;;;;;;1.20;1.10;;;;;;;14.93;66.61;99705.44;5016676;28;20440;-73
2023/03/23 07:45:20;;;;;;;1.20;1.10;;;;;;;14.94;66.77;99704.34;5024911;28;20878;-74
2023/03/23 07:47:45;;;;;;;2.20;1.35;;;;;;;14.94;66.87;99713.38;5024085;28;20430;-74
2023/03/23 07:50:12;;;;;;;1.20;1.10;;;;;;;15.02;66.55;99709.16;5015595;28;20967;-73
2023/03/23 07:52:38;;;;;;;0.93;0.93;;;;;;;15.06;66.60;99719.22;5016779;28;20912;-74
2023/03/23 07:55:05;;;;;;;1.27;1.17;;;;;;;15.16;66.71;99723.72;5015334;28;20439;-74
2023/03/23 07:57:30;;;;;;;1.10;1.00;;;;;;;15.22;66.01;99727.19;5026144;28;20408;-73
2023/03/23 07:59:56;;;;;;;1.70;1.23;;;;;;;15.25;65.85;99727.41;5014688;28;20479;-74
2023/03/23 08:02:23;;;;;;;1.30;1.20;;;;;;;15.29;65.69;99722.19;5028310;28;20468;-74
2023/03/23 08:04:48;;;;;;;2.42;0.90;;;;;;;15.37;65.46;99724.28;5017335;28;20463;-73
2023/03/23 08:07:16;;;;;;;1.00;0.77;;;;;;;15.39;64.76;99725.59;5025840;28;20387;-74
2023/03/23 08:09:41;;;;;;;1.10;1.10;;;;;;;15.36;64.76;99730.81;5028522;28;20413;-74
2023/03/23 08:12:06;;;;;;;0.95;0.95;;;;;;;15.37;64.52;99732.47;5038974;28;20395;-73
2023/03/23 08:14:32;;;;;;;1.60;1.27;;;;;;;15.36;64.39;99723.44;5020989;28;20405;-74
2023/03/23 08:16:58;;;;;;;2.50;1.10;;;;;;;15.41;64.22;99728.81;5028305;28;20403;-74
2023/03/23 08:19:23;;;;;;;1.80;1.00;;;;;;;15.49;64.15;99730.94;5017771;28;20449;-73
2023/03/23 08:21:49;;;;;;;0.70;0.70;;;;;;;15.57;64.00;99738.50;5026219;28;20418;-74
2023/03/23 08:24:14;;;;;;;1.60;0.90;;;;;;;15.63;63.89;99738.41;5029689;28;20493;-74
2023/03/23 08:26:40;;;;;;;4.30;0.90;;;;;;;15.71;63.74;99732.28;5015797;28;20436;-73
2023/03/23 08:29:06;;;;;;;1.15;1.00;;;;;;;15.83;63.43;99736.19;5027435;28;20396;-73
2023/03/23 08:31:34;;;;;;;2.40;1.05;;;;;;;16.00;63.06;99738.38;5013278;28;20416;-73
2023/03/23 08:34:00;;;;;;;1.33;0.90;;;;;;;16.18;62.38;99736.72;5018883;28;20440;-74
2023/03/23 08:36:25;;;;;;;3.33;1.00;;;;;;;16.35;61.83;99736.97;5027942;28;20398;-74
2023/03/23 08:38:52;;;;;;;1.58;1.00;;;;;;;16.45;61.60;99736.78;5015402;28;20426;-74
2023/03/23 08:41:17;;;;;;;1.58;0.93;;;;;;;16.50;61.44;99744.88;5030743;28;20406;-73
2023/03/23 08:43:43;;;;;;;2.20;1.10;;;;;;;16.47;61.34;99756.44;5020208;28;20393;-74
2023/03/23 08:46:10;;;;;;;1.13;1.10;;;;;;;16.38;61.57;99758.25;5016266;28;20976;-74
2023/03/23 08:48:37;;;;;;;3.38;1.40;;;;;;;16.26;61.42;99761.47;5015515;28;20387;-73
2023/03/23 08:51:03;;;;;;;1.38;0.90;;;;;;;16.12;61.69;99776.19;5025730;28;20488;-74
2023/03/23 08:53:30;;;;;;;1.10;1.00;;;;;;;16.01;61.80;99776.34;5022197;28;20458;-73
2023/03/23 08:56:02;;;;;;;1.67;1.00;;;;;;;15.98;62.02;99778.84;5032221;28;20505;-73
2023/03/23 08:58:28;;;;;;;2.42;1.30;;;;;;;15.96;62.12;99781.88;5020001;28;20506;-74
2023/03/23 09:00:53;;;;;;;1.55;1.15;;;;;;;15.90;62.26;99798.66;5031612;28;20496;-73
2023/03/23 09:03:19;;;;;;;1.20;1.10;;;;;;;15.82;63.03;99800.13;5015706;28;20960;-74
2023/03/23 09:05:45;;;;;;;0.60;0.60;;;;;;;15.77;63.75;99810.31;5019041;28;20412;-74
2023/03/23 09:08:12;;;;;;;2.40;0.90;;;;;;;15.70;64.09;99799.75;5028337;28;20404;-74
2023/03/23 09:10:38;;;;;;;1.23;0.80;;;;;;;15.70;64.70;99798.94;5028530;28;20407;-74
2023/03/23 09:13:04;;;;;;;1.15;0.80;;;;;;;15.75;65.08;99804.31;5026029;28;20395;-74
2023/03/23 09:15:30;;;;;;;0.68;0.68;;;;;;;15.79;65.38;99808.09;5022483;28;20930;-73
2023/03/23 09:17:57;;;;;;;2.40;1.10;;;;;;;15.81;65.34;99803.97;5033110;28;20439;-74
2023/03/23 09:20:26;;;;;;;3.70;1.25;;;;;;;15.77;65.35;99810.31;5021092;28;20391;-73
2023/03/23 09:22:53;;;;;;;1.95;0.80;;;;;;;15.74;65.15;99816.38;5035055;28;20482;-74
2023/03/23 09:25:22;;;;;;;1.40;0.73;;;;;;;15.75;65.23;99812.53;5028583;28;20915;-74
2023/03/23 09:27:56;;;;;;;1.75;1.00;;;;;;;15.69;65.87;99821.91;5017912;28;20389;-74
2023/03/23 09:30:23;;;;;;;0.70;0.70;;;;;;;15.58;66.15;99818.47;5027447;28;20400;-75
2023/03/23 09:32:48;;;;;;;0.90;0.80;;;;;;;15.53;66.76;99835.75;5026923;28;20390;-74
2023/03/23 09:35:16;;;;;;;0.80;0.80;;;;;;;15.49;67.01;99828.44;5023560;28;20887;-74
2023/03/23 09:37:44;;;;;;;0.90;0.90;;;;;;;15.49;67.13;99823.78;5030049;28;20422;-73
2023/03/23 09:40:14;;;;;;;0.83;0.83;;;;;;;15.55;67.02;99825.34;5021571;28;20437;-74
2023/03/23 09:42:47;;;;;;;1.05;0.85;;;;;;;15.50;67.25;99819.97;5032070;28;20391;-73
2023/03/23 09:45:23;;;;;;;4.28;0.77;;;;;;;15.41;67.71;99826.34;5030913;28;20390;-74
2023/03/23 09:48:11;;;;;;;1.60;0.77;;;;;;;15.29;68.57;99834.91;5021219;28;20526;-74
2023/03/23 09:50:39;;;;;;;1.00;0.82;;;;;;;15.28;68.94;99829.78;5025263;28;20629;-74
2023/03/23 09:53:18;;;;;;;0.70;0.70;;;;;;;15.30;69.21;99831.09;5018844;28;20428;-74
2023/03/23 09:55:45;;;;;;;1.00;0.75;;;;;;;15.31;69.23;99831.91;5020099;28;20402;-73
2023/03/23 09:58:36;;;;;;;1.50;0.80;;;;;;;15.30;69.20;99833.81;5027757;28;20421;-74
2023/03/23 10:01:12;;;;;;;0.90;0.55;;;;;;;15.27;69.42;99834.41;5024722;28;20395;-74
2023/03/23 10:03:41;;;;;;;0.80;0.80;;;;;;;15.25;69.62;99844.78;5020111;28;20426;-74
2023/03/23 10:06:12;;;;;;;1.15;0.73;;;;;;;15.24;69.92;99845.09;5033366;28;20473;-74
2023/03/23 10:08:42;;;;;;;1.70;0.82;;;;;;;15.24;70.02;99842.38;5025923;28;20491;-74
2023/03/23 10:11:31;;;;;;;3.80;2.40;;;;;;;15.20;70.06;99842.13;5021706;28;20460;-74
2023/03/23 10:14:12;;;;;;;2.40;2.20;;;;;;;15.23;70.17;99838.81;5025557;28;20756;-74
2023/03/23 10:16:47;;;;;;;0.93;0.93;;;;;;;15.27;69.79;99844.50;5023021;28;20409;-73
2023/03/23 10:19:35;;;;;;;0.75;0.50;;;;;;;15.32;69.92;99845.25;5017901;28;20416;-74
2023/03/23 10:22:08;;;;;;;0.85;0.73;;;;;;;15.29;69.94;99845.03;5020056;28;20448;-74
2023/03/23 10:24:51;;;;;;;1.30;0.68;;;;;;;15.30;69.84;99850.22;5030827;28;20391;-74
2023/03/23 10:27:29;;;;;;;1.00;0.90;;;;;;;15.29;70.29;99856.75;5020195;28;20391;-74
2023/03/23 10:30:02;;;;;;;0.90;0.77;;;;;;;15.30;70.39;99842.03;5026182;28;20422;-74
2023/03/23 10:32:53;;;;;;;3.10;1.00;;;;;;;15.28;70.78;99855.13;5033821;28;20885;-74
2023/03/23 10:35:43;;;;;;;1.00;1.00;;;;;;;15.27;71.21;99856.25;5026785;28;20412;-74
2023/03/23 10:38:21;;;;;;;1.20;0.60;;;;;;;15.26;71.01;99851.06;5023649;28;20409;-74
2023/03/23 10:40:54;;;;;;;1.17;0.80;;;;;;;15.21;71.39;99851.13;5026451;28;20534;-74
2023/03/23 10:43:20;;;;;;;1.13;1.02;;;;;;;15.19;71.36;99847.88;5025216;28;20397;-74
2023/03/23 10:45:53;;;;;;;1.08;1.08;;;;;;;15.20;71.13;99849.50;5026505;28;20458;-74
2023/03/23 10:48:23;;;;;;;0.77;0.77;;;;;;;15.19;70.95;99845.94;5027811;28;20768;-74
2023/03/23 10:50:54;;;;;;;0.93;0.70;;;;;;;15.17;70.86;99844.63;5028301;28;20432;-73
2023/03/23 10:53:30;;;;;;;0.98;0.90;;;;;;;15.18;70.89;99844.31;5022513;28;20474;-74
2023/03/23 10:55:58;;;;;;;1.00;1.00;;;;;;;15.20;70.55;99844.03;5018531;28;20385;-74
2023/03/23 10:58:32;;;;;;;1.63;1.52;;;;;;;15.31;70.21;99849.09;5029614;28;20416;-74
2023/03/23 11:01:00;;;;;;;3.92;1.42;;;;;;;15.42;69.74;99850.59;5025661;28;20389;-74
2023/03/23 11:03:48;;;;;;;1.57;1.20;;;;;;;15.63;68.80;99858.59;5018452;28;20408;-74
2023/03/23 11:06:21;;;;;;;1.15;1.05;;;;;;;15.64;68.42;99855.56;5032337;28;20513;-74
2023/03/23 11:08:55;;;;;;;1.40;0.90;;;;;;;15.63;68.91;99859.41;5024809;28;20415;-74
2023/03/23 11:11:29;;;;;;;2.33;1.10;;;;;;;15.59;69.31;99866.53;5026084;28;20395;-73
2023/03/23 11:14:19;;;;;;;0.82;0.80;;;;;;;15.60;69.40;99865.44;5030816;28;20430;-73
2023/03/23 11:16:53;;;;;;;1.52;0.93;;;;;;;15.62;69.41;99867.88;5019487;28;20433;-74
2023/03/23 11:19:26;;;;;;;1.35;0.90;;;;;;;15.63;69.40;99869.50;5014702;28;20499;-74
2023/03/23 11:21:59;;;;;;;1.10;0.80;;;;;;;15.68;69.22;99869.44;5029473;28;20387;-74
2023/03/23 11:24:28;;;;;;;0.93;0.93;;;;;;;15.73;69.16;99869.38;5020005;28;20399;-74